createdAt,value
2023-05-14T00:00:58.205Z,0.00
2023-05-14T00:01:58.432Z,0.00
2023-05-14T00:02:58.577Z,0.00
2023-05-14T00:03:58.787Z,0.00
2023-05-14T00:04:58.504Z,0.00
2023-05-14T00:05:58.576Z,0.00
2023-05-14T00:06:58.646Z,0.00
2023-05-14T00:07:58.712Z,0.00
2023-05-14T00:08:58.792Z,0.00
2023-05-14T00:09:58.849Z,0.00
2023-05-14T00:10:58.927Z,0.00
2023-05-14T00:11:58.991Z,0.00
2023-05-14T00:12:59.050Z,0.00
2023-05-14T00:13:59.120Z,0.00
2023-05-14T00:14:59.241Z,0.00
2023-05-14T00:15:59.352Z,0.00
2023-05-14T00:16:59.396Z,0.00
2023-05-14T00:17:59.507Z,0.00
2023-05-14T00:18:59.569Z,0.00
2023-05-14T00:19:59.636Z,0.00
2023-05-14T00:20:59.763Z,0.00
2023-05-14T00:21:59.811Z,0.00
2023-05-14T00:22:59.923Z,0.00
2023-05-14T00:24:00.022Z,0.00
2023-05-14T00:25:00.110Z,0.00
2023-05-14T00:26:00.213Z,0.00
2023-05-14T00:27:00.273Z,0.00
2023-05-14T00:28:00.320Z,0.00
2023-05-14T00:29:00.457Z,0.00
2023-05-14T00:30:00.505Z,0.00
2023-05-14T00:31:00.609Z,0.00
2023-05-14T00:32:00.654Z,0.00
2023-05-14T00:33:00.795Z,0.00
2023-05-14T00:34:00.812Z,0.00
2023-05-14T00:35:00.910Z,0.00
2023-05-14T00:36:01.015Z,0.00
2023-05-14T00:37:01.092Z,0.00
2023-05-14T00:38:01.177Z,0.00
2023-05-14T00:39:01.277Z,0.00
2023-05-14T00:40:01.365Z,0.00
2023-05-14T00:41:01.466Z,0.00
2023-05-14T00:42:01.515Z,0.00
2023-05-14T00:43:01.606Z,0.00
2023-05-14T00:44:01.662Z,0.00
2023-05-14T00:45:01.765Z,0.00
2023-05-14T00:46:01.853Z,0.00
2023-05-14T00:47:02.086Z,0.00
2023-05-14T00:48:02.058Z,0.00
2023-05-14T00:49:02.063Z,0.00
2023-05-14T00:50:02.112Z,0.00
2023-05-14T00:51:02.238Z,0.00
2023-05-14T00:52:02.291Z,0.00
2023-05-14T00:53:02.391Z,0.00
2023-05-14T00:54:02.474Z,0.00
2023-05-14T00:55:02.565Z,0.00
2023-05-14T00:56:02.636Z,0.00
2023-05-14T00:57:02.713Z,0.00
2023-05-14T00:58:02.777Z,0.00
2023-05-14T00:59:02.878Z,0.00
2023-05-14T01:00:02.934Z,0.00
2023-05-14T01:01:03.238Z,0.00
2023-05-14T01:02:03.076Z,0.00
2023-05-14T01:03:03.234Z,0.00
2023-05-14T01:04:03.367Z,0.00
2023-05-14T01:05:03.338Z,0.00
2023-05-14T01:06:03.460Z,0.00
2023-05-14T01:07:03.496Z,0.00
2023-05-14T01:08:03.570Z,0.00
2023-05-14T01:09:03.678Z,0.00
2023-05-14T01:10:03.763Z,0.00
2023-05-14T01:11:03.908Z,0.00
2023-05-14T01:12:03.946Z,0.00
2023-05-14T01:13:04.022Z,0.00
2023-05-14T01:14:04.069Z,0.00
2023-05-14T01:15:04.167Z,0.00
2023-05-14T01:16:04.274Z,0.00
2023-05-14T01:17:04.317Z,0.00
2023-05-14T01:18:04.443Z,0.00
2023-05-14T01:19:04.508Z,0.00
2023-05-14T01:20:04.585Z,0.00
2023-05-14T01:21:04.695Z,0.00
2023-05-14T01:22:04.741Z,0.00
2023-05-14T01:23:04.831Z,0.00
2023-05-14T01:24:04.933Z,0.00
2023-05-14T01:25:05.069Z,0.00
2023-05-14T01:26:05.108Z,0.00
2023-05-14T01:27:05.160Z,0.00
2023-05-14T01:28:05.257Z,0.00
2023-05-14T01:29:05.340Z,0.00
2023-05-14T01:30:05.431Z,0.00
2023-05-14T01:31:05.538Z,0.00
2023-05-14T01:32:05.710Z,0.00
2023-05-14T01:33:05.679Z,0.00
2023-05-14T01:34:05.725Z,0.00
2023-05-14T01:35:05.780Z,0.00
2023-05-14T01:36:06.049Z,0.00
2023-05-14T01:37:05.941Z,0.00
2023-05-14T01:38:06.046Z,0.00
2023-05-14T01:39:06.102Z,0.00
2023-05-14T01:40:06.177Z,0.00
2023-05-14T01:41:06.283Z,0.00
2023-05-14T01:42:06.342Z,0.00
2023-05-14T01:43:06.560Z,0.00
2023-05-14T01:44:06.486Z,0.00
2023-05-14T01:45:06.569Z,0.00
2023-05-14T01:46:06.737Z,0.00
2023-05-14T01:47:06.727Z,0.00
2023-05-14T01:48:06.894Z,0.00
2023-05-14T01:49:06.894Z,0.00
2023-05-14T01:50:06.999Z,0.00
2023-05-14T01:51:07.096Z,0.00
2023-05-14T01:52:07.190Z,0.00
2023-05-14T01:53:07.256Z,0.00
2023-05-14T01:54:07.345Z,0.00
2023-05-14T01:55:07.417Z,0.00
2023-05-14T01:56:07.522Z,0.00
2023-05-14T01:57:07.605Z,0.00
2023-05-14T01:58:07.692Z,0.00
2023-05-14T01:59:07.777Z,0.00
2023-05-14T02:00:07.876Z,0.00
2023-05-14T02:01:08.420Z,0.00
2023-05-14T02:02:08.013Z,0.00
2023-05-14T02:03:08.124Z,0.00
2023-05-14T02:04:08.242Z,0.00
2023-05-14T02:05:08.238Z,0.00
2023-05-14T02:06:08.340Z,0.00
2023-05-14T02:07:08.392Z,0.00
2023-05-14T02:08:08.480Z,0.00
2023-05-14T02:09:08.567Z,0.00
2023-05-14T02:10:08.668Z,0.00
2023-05-14T02:11:08.751Z,0.00
2023-05-14T02:12:08.845Z,0.00
2023-05-14T02:13:08.907Z,0.00
2023-05-14T02:14:09.004Z,0.00
2023-05-14T02:15:09.099Z,0.00
2023-05-14T02:16:09.239Z,0.00
2023-05-14T02:17:09.233Z,0.00
2023-05-14T02:18:09.362Z,0.00
2023-05-14T02:19:09.523Z,0.00
2023-05-14T02:20:09.463Z,0.00
2023-05-14T02:21:09.561Z,0.00
2023-05-14T02:22:09.651Z,0.00
2023-05-14T02:23:09.730Z,0.00
2023-05-14T02:24:09.819Z,0.00
2023-05-14T02:25:09.909Z,0.00
2023-05-14T02:26:09.977Z,0.00
2023-05-14T02:27:10.023Z,0.00
2023-05-14T02:28:10.097Z,0.00
2023-05-14T02:29:10.178Z,0.00
2023-05-14T02:30:10.269Z,0.00
2023-05-14T02:31:10.395Z,0.00
2023-05-14T02:32:10.462Z,0.00
2023-05-14T02:33:10.589Z,0.00
2023-05-14T02:34:10.609Z,0.00
2023-05-14T02:35:10.711Z,0.00
2023-05-14T02:36:10.829Z,0.00
2023-05-14T02:37:10.869Z,0.00
2023-05-14T02:38:10.947Z,0.00
2023-05-14T02:39:11.036Z,0.00
2023-05-14T02:40:11.120Z,0.00
2023-05-14T02:41:11.226Z,0.00
2023-05-14T02:42:11.310Z,0.00
2023-05-14T02:43:11.341Z,0.00
2023-05-14T02:44:11.425Z,0.00
2023-05-14T02:45:11.517Z,0.00
2023-05-14T02:46:11.633Z,0.00
2023-05-14T02:47:11.733Z,0.00
2023-05-14T02:48:11.823Z,0.00
2023-05-14T02:49:11.832Z,0.00
2023-05-14T02:50:11.922Z,0.00
2023-05-14T02:51:12.013Z,0.00
2023-05-14T02:52:12.099Z,0.00
2023-05-14T02:53:12.172Z,0.00
2023-05-14T02:54:12.269Z,0.00
2023-05-14T02:55:12.324Z,0.00
2023-05-14T02:56:12.425Z,0.00
2023-05-14T02:57:12.493Z,0.00
2023-05-14T02:58:12.589Z,0.00
2023-05-14T02:59:12.669Z,0.00
2023-05-14T03:00:12.766Z,0.00
2023-05-14T03:01:12.933Z,0.00
2023-05-14T03:02:12.997Z,0.00
2023-05-14T03:03:13.033Z,0.00
2023-05-14T03:04:13.089Z,0.00
2023-05-14T03:05:13.170Z,0.00
2023-05-14T03:06:13.284Z,0.00
2023-05-14T03:07:13.339Z,0.00
2023-05-14T03:08:13.439Z,0.00
2023-05-14T03:09:13.494Z,0.00
2023-05-14T03:10:13.598Z,0.00
2023-05-14T03:11:13.689Z,0.00
2023-05-14T03:12:13.781Z,0.00
2023-05-14T03:13:13.857Z,0.00
2023-05-14T03:14:13.955Z,0.00
2023-05-14T03:15:14.044Z,0.00
2023-05-14T03:16:14.167Z,0.00
2023-05-14T03:17:14.199Z,0.00
2023-05-14T03:18:14.290Z,0.00
2023-05-14T03:19:14.488Z,0.00
2023-05-14T03:20:14.442Z,0.00
2023-05-14T03:21:14.560Z,0.00
2023-05-14T03:22:14.610Z,0.00
2023-05-14T03:23:14.701Z,0.00
2023-05-14T03:24:14.763Z,0.00
2023-05-14T03:25:14.853Z,0.00
2023-05-14T03:26:14.926Z,0.00
2023-05-14T03:27:15.034Z,0.00
2023-05-14T03:28:15.122Z,0.00
2023-05-14T03:29:15.179Z,0.00
2023-05-14T03:30:15.240Z,0.00
2023-05-14T03:31:15.355Z,5.62
2023-05-14T03:32:15.395Z,5.62
2023-05-14T03:33:15.493Z,5.62
2023-05-14T03:34:15.549Z,5.62
2023-05-14T03:35:15.644Z,5.62
2023-05-14T03:36:15.733Z,5.62
2023-05-14T03:37:15.817Z,5.62
2023-05-14T03:38:15.856Z,11.25
2023-05-14T03:39:15.954Z,11.25
2023-05-14T03:40:16.053Z,11.25
2023-05-14T03:41:16.167Z,11.25
2023-05-14T03:42:16.187Z,11.25
2023-05-14T03:43:16.283Z,16.88
2023-05-14T03:44:16.357Z,16.88
2023-05-14T03:45:16.470Z,16.88
2023-05-14T03:46:16.573Z,16.88
2023-05-14T03:47:16.637Z,22.50
2023-05-14T03:48:16.852Z,22.50
2023-05-14T03:49:16.804Z,22.50
2023-05-14T03:50:16.870Z,28.12
2023-05-14T03:51:16.987Z,28.12
2023-05-14T03:52:17.037Z,28.12
2023-05-14T03:53:17.144Z,33.75
2023-05-14T03:54:17.215Z,33.75
2023-05-14T03:55:17.304Z,39.38
2023-05-14T03:56:17.409Z,39.38
2023-05-14T03:57:17.497Z,45.00
2023-05-14T03:58:17.615Z,45.00
2023-05-14T03:59:17.677Z,50.62
2023-05-14T04:00:17.761Z,50.62
2023-05-14T04:01:17.879Z,56.25
2023-05-14T04:02:17.916Z,56.25
2023-05-14T04:03:18.058Z,61.88
2023-05-14T04:04:18.106Z,61.88
2023-05-14T04:05:18.174Z,67.50
2023-05-14T04:06:18.254Z,73.12
2023-05-14T04:07:18.332Z,73.12
2023-05-14T04:08:18.422Z,78.75
2023-05-14T04:09:18.481Z,84.38
2023-05-14T04:10:18.557Z,84.38
2023-05-14T04:11:18.680Z,90.00
2023-05-14T04:12:18.711Z,95.62
2023-05-14T04:13:18.798Z,95.62
2023-05-14T04:14:18.873Z,101.25
2023-05-14T04:15:19.002Z,106.88
2023-05-14T04:16:19.067Z,112.50
2023-05-14T04:17:19.128Z,112.50
2023-05-14T04:18:19.235Z,118.12
2023-05-14T04:19:19.315Z,123.75
2023-05-14T04:20:19.364Z,129.38
2023-05-14T04:21:19.602Z,135.00
2023-05-14T04:22:19.516Z,135.00
2023-05-14T04:23:19.594Z,140.62
2023-05-14T04:24:19.652Z,146.25
2023-05-14T04:25:19.747Z,151.88
2023-05-14T04:26:19.822Z,151.88
2023-05-14T04:27:19.874Z,157.50
2023-05-14T04:28:19.962Z,163.12
2023-05-14T04:29:20.081Z,163.12
2023-05-14T04:30:20.135Z,168.75
2023-05-14T04:31:20.295Z,168.75
2023-05-14T04:32:20.290Z,174.38
2023-05-14T04:33:20.364Z,180.00
2023-05-14T04:34:20.453Z,185.62
2023-05-14T04:35:22.119Z,185.62
2023-05-14T04:36:20.607Z,191.25
2023-05-14T04:37:20.714Z,196.88
2023-05-14T04:38:20.754Z,202.50
2023-05-14T04:39:20.857Z,202.50
2023-05-14T04:40:20.917Z,208.12
2023-05-14T04:41:21.020Z,213.75
2023-05-14T04:42:21.077Z,219.38
2023-05-14T04:43:21.183Z,225.00
2023-05-14T04:44:21.223Z,225.00
2023-05-14T04:45:21.345Z,230.62
2023-05-14T04:46:21.420Z,236.25
2023-05-14T04:47:21.521Z,241.88
2023-05-14T04:48:21.519Z,247.50
2023-05-14T04:49:21.604Z,253.12
2023-05-14T04:50:22.048Z,258.75
2023-05-14T04:51:21.781Z,258.75
2023-05-14T04:52:21.826Z,264.38
2023-05-14T04:53:21.935Z,270.00
2023-05-14T04:54:22.013Z,275.62
2023-05-14T04:55:22.096Z,281.25
2023-05-14T04:56:22.143Z,286.88
2023-05-14T04:57:22.199Z,292.50
2023-05-14T04:58:22.278Z,298.12
2023-05-14T04:59:22.388Z,298.12
2023-05-14T05:00:22.789Z,303.75
2023-05-14T05:01:22.561Z,309.38
2023-05-14T05:02:22.540Z,315.00
2023-05-14T05:03:22.748Z,320.62
2023-05-14T05:04:22.732Z,320.62
2023-05-14T05:05:22.791Z,326.25
2023-05-14T05:06:22.924Z,343.12
2023-05-14T05:07:22.991Z,343.12
2023-05-14T05:08:23.027Z,343.12
2023-05-14T05:09:23.140Z,343.12
2023-05-14T05:10:23.485Z,348.75
2023-05-14T05:11:23.306Z,354.38
2023-05-14T05:12:23.348Z,360.00
2023-05-14T05:13:23.442Z,360.00
2023-05-14T05:14:23.497Z,365.62
2023-05-14T05:15:25.912Z,371.25
2023-05-14T05:16:23.716Z,376.88
2023-05-14T05:17:23.768Z,382.50
2023-05-14T05:18:23.826Z,388.12
2023-05-14T05:19:35.863Z,393.75
2023-05-14T05:20:24.187Z,399.38
2023-05-14T05:21:24.118Z,399.38
2023-05-14T05:22:24.182Z,405.00
2023-05-14T05:23:24.238Z,410.62
2023-05-14T05:24:24.316Z,410.62
2023-05-14T05:25:24.397Z,416.25
2023-05-14T05:26:24.490Z,421.88
2023-05-14T05:27:24.572Z,427.50
2023-05-14T05:28:24.666Z,433.12
2023-05-14T05:29:24.756Z,433.12
2023-05-14T05:30:25.081Z,438.75
2023-05-14T05:31:25.020Z,444.38
2023-05-14T05:32:25.005Z,444.38
2023-05-14T05:33:25.060Z,450.00
2023-05-14T05:34:25.153Z,455.62
2023-05-14T05:35:25.264Z,461.25
2023-05-14T05:36:25.377Z,466.88
2023-05-14T05:37:25.424Z,466.88
2023-05-14T05:38:25.489Z,472.50
2023-05-14T05:39:25.574Z,478.12
2023-05-14T05:40:25.845Z,483.75
2023-05-14T05:41:25.776Z,489.38
2023-05-14T05:42:25.815Z,495.00
2023-05-14T05:43:25.883Z,500.62
2023-05-14T05:44:25.973Z,500.62
2023-05-14T05:45:26.072Z,506.25
2023-05-14T05:46:26.183Z,511.88
2023-05-14T05:47:26.302Z,776.25
2023-05-14T05:48:26.306Z,1603.12
2023-05-14T05:49:26.412Z,2345.62
2023-05-14T05:50:26.455Z,2323.12
2023-05-14T05:51:26.561Z,2340.00
2023-05-14T05:52:26.622Z,2356.88
2023-05-14T05:53:26.724Z,2508.75
2023-05-14T05:54:26.799Z,2643.75
2023-05-14T05:55:26.909Z,2666.25
2023-05-14T05:56:28.506Z,2632.50
2023-05-14T05:57:27.041Z,2722.50
2023-05-14T05:58:27.130Z,2863.12
2023-05-14T05:59:27.195Z,2733.75
2023-05-14T06:00:27.408Z,2655.00
2023-05-14T06:01:27.401Z,2683.12
2023-05-14T06:02:27.528Z,2677.50
2023-05-14T06:03:27.538Z,2846.25
2023-05-14T06:04:27.600Z,2986.88
2023-05-14T06:05:27.732Z,2891.25
2023-05-14T06:06:27.755Z,2986.88
2023-05-14T06:07:27.870Z,3234.38
2023-05-14T06:08:27.932Z,3296.25
2023-05-14T06:09:28.022Z,3251.25
2023-05-14T06:10:28.075Z,3133.12
2023-05-14T06:11:28.186Z,2908.12
2023-05-14T06:12:28.290Z,2863.12
2023-05-14T06:13:28.339Z,2975.62
2023-05-14T06:14:28.387Z,3245.62
2023-05-14T06:15:28.488Z,3335.62
2023-05-14T06:16:28.604Z,3335.62
2023-05-14T06:17:28.753Z,3313.12
2023-05-14T06:18:28.748Z,3431.25
2023-05-14T06:19:28.841Z,3622.50
2023-05-14T06:20:28.964Z,3549.38
2023-05-14T06:21:29.020Z,3380.62
2023-05-14T06:22:29.086Z,3571.88
2023-05-14T06:23:29.175Z,3650.62
2023-05-14T06:24:29.264Z,3324.38
2023-05-14T06:25:29.369Z,3009.38
2023-05-14T06:26:29.454Z,2868.75
2023-05-14T06:27:29.603Z,2902.50
2023-05-14T06:28:29.637Z,3020.62
2023-05-14T06:29:29.693Z,3161.25
2023-05-14T06:30:29.786Z,3228.75
2023-05-14T06:31:29.904Z,3285.00
2023-05-14T06:32:29.994Z,3425.62
2023-05-14T06:33:30.056Z,3476.25
2023-05-14T06:34:30.134Z,3375.00
2023-05-14T06:35:30.186Z,3397.50
2023-05-14T06:36:30.298Z,3493.12
2023-05-14T06:37:30.365Z,3285.00
2023-05-14T06:38:30.419Z,2750.62
2023-05-14T06:39:30.521Z,2317.50
2023-05-14T06:40:30.597Z,2345.62
2023-05-14T06:41:30.723Z,2806.88
2023-05-14T06:42:30.812Z,3116.25
2023-05-14T06:43:30.872Z,3166.88
2023-05-14T06:44:30.919Z,3161.25
2023-05-14T06:45:33.211Z,3375.00
2023-05-14T06:46:31.096Z,3515.62
2023-05-14T06:47:31.316Z,3594.38
2023-05-14T06:48:31.316Z,3504.38
2023-05-14T06:49:31.347Z,3600.00
2023-05-14T06:50:31.401Z,3667.50
2023-05-14T06:51:31.497Z,3240.00
2023-05-14T06:52:31.589Z,3003.75
2023-05-14T06:53:31.661Z,2025.00
2023-05-14T06:54:31.717Z,1136.25
2023-05-14T06:55:31.813Z,2548.12
2023-05-14T06:56:31.870Z,3105.00
2023-05-14T06:57:32.041Z,2615.62
2023-05-14T06:58:32.054Z,2542.50
2023-05-14T06:59:32.157Z,2565.00
2023-05-14T07:00:32.209Z,3307.50
2023-05-14T07:01:32.347Z,3240.00
2023-05-14T07:02:32.444Z,3273.75
2023-05-14T07:03:32.459Z,3380.62
2023-05-14T07:04:32.572Z,3346.88
2023-05-14T07:05:32.656Z,3234.38
2023-05-14T07:06:32.709Z,3279.38
2023-05-14T07:07:32.822Z,3448.12
2023-05-14T07:08:32.886Z,3526.88
2023-05-14T07:09:32.985Z,3661.88
2023-05-14T07:10:33.089Z,3684.38
2023-05-14T07:11:33.179Z,3622.50
2023-05-14T07:12:33.359Z,3549.38
2023-05-14T07:13:33.363Z,3442.50
2023-05-14T07:14:33.426Z,3470.62
2023-05-14T07:15:33.512Z,3583.12
2023-05-14T07:16:33.576Z,3785.62
2023-05-14T07:17:33.713Z,4213.12
2023-05-14T07:18:33.730Z,4252.50
2023-05-14T07:19:33.803Z,4089.38
2023-05-14T07:20:33.857Z,3999.38
2023-05-14T07:21:33.947Z,3836.25
2023-05-14T07:22:34.053Z,3740.62
2023-05-14T07:23:34.109Z,3510.00
2023-05-14T07:24:34.171Z,3622.50
2023-05-14T07:25:34.274Z,3931.88
2023-05-14T07:26:34.329Z,3836.25
2023-05-14T07:27:34.451Z,3616.88
2023-05-14T07:28:34.482Z,3594.38
2023-05-14T07:29:34.594Z,3695.62
2023-05-14T07:30:34.645Z,3802.50
2023-05-14T07:31:34.852Z,3780.00
2023-05-14T07:32:34.879Z,3678.75
2023-05-14T07:33:34.875Z,3774.38
2023-05-14T07:34:34.970Z,3695.62
2023-05-14T07:35:35.052Z,3633.75
2023-05-14T07:36:35.148Z,3735.00
2023-05-14T07:37:35.241Z,3870.00
2023-05-14T07:38:35.302Z,3909.38
2023-05-14T07:39:35.360Z,3937.50
2023-05-14T07:40:35.460Z,3853.12
2023-05-14T07:41:35.559Z,3898.12
2023-05-14T07:42:36.967Z,3892.50
2023-05-14T07:43:35.718Z,3673.12
2023-05-14T07:44:35.825Z,3695.62
2023-05-14T07:45:35.899Z,3858.75
2023-05-14T07:46:35.973Z,3825.00
2023-05-14T07:47:36.115Z,4033.12
2023-05-14T07:48:36.143Z,4066.88
2023-05-14T07:49:36.232Z,3791.25
2023-05-14T07:50:36.246Z,3645.00
2023-05-14T07:51:36.334Z,3836.25
2023-05-14T07:52:36.446Z,3960.00
2023-05-14T07:53:36.487Z,3813.75
2023-05-14T07:54:36.576Z,3718.12
2023-05-14T07:55:36.668Z,3847.50
2023-05-14T07:56:36.755Z,4027.50
2023-05-14T07:57:36.818Z,3785.62
2023-05-14T07:58:36.877Z,3757.50
2023-05-14T07:59:36.938Z,3808.12
2023-05-14T08:00:37.059Z,3768.75
2023-05-14T08:01:39.178Z,3712.50
2023-05-14T08:02:37.365Z,3611.25
2023-05-14T08:03:37.359Z,3487.50
2023-05-14T08:04:37.487Z,3453.75
2023-05-14T08:05:37.440Z,3420.00
2023-05-14T08:06:37.540Z,3431.25
2023-05-14T08:07:37.650Z,3532.50
2023-05-14T08:08:37.697Z,3628.12
2023-05-14T08:09:37.773Z,3673.12
2023-05-14T08:10:37.909Z,3611.25
2023-05-14T08:11:37.959Z,3465.00
2023-05-14T08:12:38.072Z,3341.25
2023-05-14T08:13:38.117Z,3391.88
2023-05-14T08:14:38.211Z,3549.38
2023-05-14T08:15:38.294Z,3639.38
2023-05-14T08:16:38.445Z,3825.00
2023-05-14T08:17:38.543Z,3937.50
2023-05-14T08:18:38.603Z,3796.88
2023-05-14T08:19:38.642Z,3723.75
2023-05-14T08:20:38.729Z,3751.88
2023-05-14T08:21:38.788Z,3948.75
2023-05-14T08:22:38.907Z,3881.25
2023-05-14T08:23:38.960Z,3847.50
2023-05-14T08:24:39.065Z,3931.88
2023-05-14T08:25:39.136Z,3763.12
2023-05-14T08:26:39.235Z,3481.88
2023-05-14T08:27:39.344Z,3470.62
2023-05-14T08:28:39.393Z,3690.00
2023-05-14T08:29:39.491Z,3583.12
2023-05-14T08:30:39.603Z,3549.38
2023-05-14T08:31:39.666Z,3774.38
2023-05-14T08:32:39.817Z,3898.12
2023-05-14T08:33:39.825Z,3751.88
2023-05-14T08:34:39.937Z,3622.50
2023-05-14T08:35:40.002Z,3521.25
2023-05-14T08:36:40.107Z,3532.50
2023-05-14T08:37:40.186Z,3465.00
2023-05-14T08:38:40.237Z,3425.62
2023-05-14T08:39:40.321Z,3526.88
2023-05-14T08:40:40.371Z,3515.62
2023-05-14T08:41:40.459Z,3487.50
2023-05-14T08:42:40.585Z,3684.38
2023-05-14T08:43:40.637Z,3718.12
2023-05-14T08:44:40.740Z,3594.38
2023-05-14T08:45:40.805Z,3661.88
2023-05-14T08:46:40.907Z,3757.50
2023-05-14T08:47:41.042Z,3757.50
2023-05-14T08:48:41.050Z,3622.50
2023-05-14T08:49:41.129Z,3386.25
2023-05-14T08:50:41.171Z,3318.75
2023-05-14T08:51:41.224Z,3363.75
2023-05-14T08:52:41.390Z,3363.75
2023-05-14T08:53:41.391Z,3358.12
2023-05-14T08:54:41.501Z,3386.25
2023-05-14T08:55:41.546Z,3268.12
2023-05-14T08:56:41.642Z,3071.25
2023-05-14T08:57:41.718Z,3009.38
2023-05-14T08:58:41.772Z,3071.25
2023-05-14T08:59:41.832Z,3234.38
2023-05-14T09:00:41.921Z,2655.00
2023-05-14T09:01:42.078Z,1209.38
2023-05-14T09:02:42.173Z,2711.25
2023-05-14T09:03:42.208Z,3549.38
2023-05-14T09:04:42.238Z,3290.62
2023-05-14T09:05:42.320Z,2947.50
2023-05-14T09:06:42.417Z,3318.75
2023-05-14T09:07:42.480Z,3307.50
2023-05-14T09:08:42.577Z,3363.75
2023-05-14T09:09:42.689Z,3391.88
2023-05-14T09:10:42.764Z,3251.25
2023-05-14T09:11:42.848Z,3279.38
2023-05-14T09:12:42.958Z,3414.38
2023-05-14T09:13:43.013Z,3442.50
2023-05-14T09:14:43.062Z,3380.62
2023-05-14T09:15:43.167Z,3206.25
2023-05-14T09:16:43.319Z,3150.00
2023-05-14T09:17:43.362Z,3228.75
2023-05-14T09:18:43.434Z,3358.12
2023-05-14T09:19:43.469Z,3273.75
2023-05-14T09:20:43.563Z,3121.88
2023-05-14T09:21:43.657Z,3093.75
2023-05-14T09:22:43.758Z,3200.62
2023-05-14T09:23:43.812Z,3183.75
2023-05-14T09:24:44.133Z,3110.62
2023-05-14T09:25:43.975Z,3003.75
2023-05-14T09:26:44.071Z,2964.38
2023-05-14T09:27:44.168Z,2970.00
2023-05-14T09:28:44.239Z,2958.75
2023-05-14T09:29:44.284Z,2829.38
2023-05-14T09:30:44.412Z,2750.62
2023-05-14T09:31:44.491Z,2677.50
2023-05-14T09:32:44.627Z,2655.00
2023-05-14T09:33:44.617Z,2700.00
2023-05-14T09:34:44.717Z,2756.25
2023-05-14T09:35:44.796Z,2660.62
2023-05-14T09:36:44.895Z,2300.62
2023-05-14T09:37:44.983Z,2677.50
2023-05-14T09:38:45.037Z,2643.75
2023-05-14T09:39:45.136Z,2615.62
2023-05-14T09:40:45.220Z,2581.88
2023-05-14T09:41:45.315Z,2610.00
2023-05-14T09:42:45.442Z,2649.38
2023-05-14T09:43:45.492Z,2660.62
2023-05-14T09:44:45.592Z,2581.88
2023-05-14T09:45:45.639Z,2593.12
2023-05-14T09:46:45.737Z,2587.50
2023-05-14T09:47:46.113Z,2716.88
2023-05-14T09:48:46.091Z,2835.00
2023-05-14T09:49:45.970Z,2756.25
2023-05-14T09:50:46.037Z,2660.62
2023-05-14T09:51:46.088Z,2711.25
2023-05-14T09:52:46.202Z,2716.88
2023-05-14T09:53:46.256Z,2508.75
2023-05-14T09:54:46.360Z,2666.25
2023-05-14T09:55:46.429Z,2750.62
2023-05-14T09:56:46.599Z,2773.12
2023-05-14T09:57:46.597Z,2345.62
2023-05-14T09:58:46.654Z,2559.38
2023-05-14T09:59:46.740Z,2463.75
2023-05-14T10:00:46.856Z,2520.00
2023-05-14T10:01:46.894Z,2581.88
2023-05-14T10:02:47.121Z,2559.38
2023-05-14T10:03:47.073Z,2531.25
2023-05-14T10:04:47.314Z,2514.38
2023-05-14T10:05:47.238Z,2469.38
2023-05-14T10:06:47.329Z,2446.88
2023-05-14T10:07:47.447Z,2058.75
2023-05-14T10:08:47.491Z,2368.12
2023-05-14T10:09:47.552Z,2323.12
2023-05-14T10:10:47.647Z,2345.62
2023-05-14T10:11:47.700Z,2351.25
2023-05-14T10:12:47.825Z,2351.25
2023-05-14T10:13:47.870Z,2368.12
2023-05-14T10:14:47.975Z,2441.25
2023-05-14T10:15:48.025Z,2345.62
2023-05-14T10:16:48.232Z,2300.62
2023-05-14T10:17:48.233Z,2311.88
2023-05-14T10:18:48.365Z,2306.25
2023-05-14T10:19:48.357Z,2311.88
2023-05-14T10:20:48.450Z,2295.00
2023-05-14T10:21:48.506Z,1726.88
2023-05-14T10:22:48.620Z,1524.38
2023-05-14T10:23:48.666Z,1659.38
2023-05-14T10:24:48.767Z,1653.75
2023-05-14T10:25:48.826Z,1681.88
2023-05-14T10:26:48.939Z,2036.25
2023-05-14T10:27:49.024Z,2075.62
2023-05-14T10:28:49.080Z,2053.12
2023-05-14T10:29:49.132Z,1985.62
2023-05-14T10:30:49.250Z,2002.50
2023-05-14T10:31:49.363Z,2019.38
2023-05-14T10:32:49.435Z,2030.62
2023-05-14T10:33:49.410Z,1350.00
2023-05-14T10:34:49.504Z,1906.88
2023-05-14T10:35:49.603Z,1912.50
2023-05-14T10:36:49.669Z,1901.25
2023-05-14T10:37:49.739Z,1777.50
2023-05-14T10:38:49.799Z,1766.25
2023-05-14T10:39:49.850Z,1777.50
2023-05-14T10:40:51.586Z,1771.88
2023-05-14T10:41:50.018Z,1743.75
2023-05-14T10:42:50.132Z,1760.62
2023-05-14T10:43:50.178Z,1743.75
2023-05-14T10:44:50.279Z,1687.50
2023-05-14T10:45:50.330Z,1653.75
2023-05-14T10:46:50.490Z,1620.00
2023-05-14T10:47:50.570Z,1597.50
2023-05-14T10:48:50.594Z,1569.38
2023-05-14T10:49:50.645Z,1569.38
2023-05-14T10:50:50.770Z,1575.00
2023-05-14T10:51:50.820Z,534.38
2023-05-14T10:52:50.937Z,1440.00
2023-05-14T10:53:51.009Z,1383.75
2023-05-14T10:54:51.093Z,1231.88
2023-05-14T10:55:51.143Z,911.25
2023-05-14T10:56:51.241Z,765.00
2023-05-14T10:57:51.370Z,691.88
2023-05-14T10:58:51.432Z,652.50
2023-05-14T10:59:51.507Z,641.25
2023-05-14T11:00:51.608Z,641.25
2023-05-14T11:01:51.728Z,635.62
2023-05-14T11:02:51.806Z,635.62
2023-05-14T11:03:51.880Z,635.62
2023-05-14T11:04:51.922Z,641.25
2023-05-14T11:05:52.010Z,646.88
2023-05-14T11:06:52.108Z,686.25
2023-05-14T11:07:52.168Z,624.38
2023-05-14T11:08:52.237Z,675.00
2023-05-14T11:09:52.324Z,641.25
2023-05-14T11:10:52.436Z,748.12
2023-05-14T11:11:52.517Z,675.00
2023-05-14T11:12:52.617Z,601.88
2023-05-14T11:13:52.679Z,635.62
2023-05-14T11:14:52.753Z,669.38
2023-05-14T11:15:52.848Z,663.75
2023-05-14T11:16:52.961Z,748.12
2023-05-14T11:17:53.077Z,652.50
2023-05-14T11:18:53.134Z,708.75
2023-05-14T11:19:53.192Z,753.75
2023-05-14T11:20:53.281Z,765.00
2023-05-14T11:21:53.368Z,776.25
2023-05-14T11:22:53.484Z,793.12
2023-05-14T11:23:53.523Z,826.88
2023-05-14T11:24:53.616Z,866.25
2023-05-14T11:25:53.761Z,894.38
2023-05-14T11:26:53.794Z,916.88
2023-05-14T11:27:53.926Z,922.50
2023-05-14T11:28:53.986Z,945.00
2023-05-14T11:29:54.068Z,939.38
2023-05-14T11:30:54.163Z,950.62
2023-05-14T11:31:54.249Z,928.12
2023-05-14T11:32:54.400Z,855.00
2023-05-14T11:33:54.367Z,826.88
2023-05-14T11:34:54.473Z,770.62
2023-05-14T11:35:54.553Z,720.00
2023-05-14T11:36:54.659Z,675.00
2023-05-14T11:37:54.724Z,641.25
2023-05-14T11:38:54.821Z,596.25
2023-05-14T11:39:54.876Z,573.75
2023-05-14T11:40:54.971Z,556.88
2023-05-14T11:41:55.072Z,540.00
2023-05-14T11:42:55.166Z,517.50
2023-05-14T11:43:55.213Z,489.38
2023-05-14T11:44:55.317Z,461.25
2023-05-14T11:45:55.486Z,438.75
2023-05-14T11:46:55.475Z,421.88
2023-05-14T11:47:55.633Z,416.25
2023-05-14T11:48:55.616Z,416.25
2023-05-14T11:49:55.717Z,405.00
2023-05-14T11:50:55.778Z,388.12
2023-05-14T11:51:55.883Z,382.50
2023-05-14T11:52:55.966Z,376.88
2023-05-14T11:53:56.035Z,371.25
2023-05-14T11:54:56.089Z,365.62
2023-05-14T11:55:56.177Z,365.62
2023-05-14T11:56:56.245Z,365.62
2023-05-14T11:57:56.344Z,371.25
2023-05-14T11:58:56.399Z,382.50
2023-05-14T11:59:56.490Z,388.12
2023-05-14T12:00:56.585Z,405.00
2023-05-14T12:01:56.656Z,416.25
2023-05-14T12:02:56.851Z,433.12
2023-05-14T12:03:56.876Z,438.75
2023-05-14T12:04:56.914Z,444.38
2023-05-14T12:05:56.936Z,461.25
2023-05-14T12:06:57.009Z,483.75
2023-05-14T12:07:57.134Z,511.88
2023-05-14T12:08:57.166Z,540.00
2023-05-14T12:09:57.264Z,562.50
2023-05-14T12:10:57.355Z,573.75
2023-05-14T12:11:57.450Z,590.62
2023-05-14T12:12:57.563Z,601.88
2023-05-14T12:13:57.613Z,613.12
2023-05-14T12:14:57.657Z,630.00
2023-05-14T12:15:57.780Z,680.62
2023-05-14T12:16:57.813Z,680.62
2023-05-14T12:17:57.957Z,646.88
2023-05-14T12:18:58.019Z,646.88
2023-05-14T12:19:58.065Z,680.62
2023-05-14T12:20:58.161Z,601.88
2023-05-14T12:21:58.255Z,601.88
2023-05-14T12:22:58.346Z,585.00
2023-05-14T12:23:58.433Z,573.75
2023-05-14T12:24:58.538Z,551.25
2023-05-14T12:25:58.630Z,534.38
2023-05-14T12:26:58.706Z,523.12
2023-05-14T12:27:58.819Z,517.50
2023-05-14T12:28:58.902Z,556.88
2023-05-14T12:30:09.248Z,534.38
2023-05-14T12:30:59.142Z,601.88
2023-05-14T12:31:59.202Z,568.12
2023-05-14T12:32:59.275Z,618.75
2023-05-14T12:33:59.321Z,568.12
2023-05-14T12:34:59.375Z,596.25